Time;durP1;ratioP1;P1;durP2;ratioP2;P2;SDS_P1;SDS_P2;PMS_P1;PMS_P2;Temp;Humidity;BMP_temperature;BMP_pressure;BME280_temperature;BME280_humidity;BME280_pressure;Samples;Min_cycle;Max_cycle;Signal;HPM_P1;HPM_P2
2022/05/24 00:01:13;;;;;;;;;;;;;;;20.43;60.32;99008.50;4487086;31;19995;-84
2022/05/24 00:03:39;;;;;;;;;;;;;;;20.54;60.33;99012.88;4501635;31;19980;-84
2022/05/24 00:06:04;;;;;;;;;;;;;;;20.45;60.33;99014.50;4486080;31;19992;-84
2022/05/24 00:08:29;;;;;;;;;;;;;;;20.47;60.32;99003.78;4501587;31;20008;-84
2022/05/24 00:10:54;;;;;;;;;;;;;;;20.44;60.32;98999.59;4501525;31;19980;-85
2022/05/24 00:13:20;;;;;;;;;;;;;;;20.52;60.32;98991.84;4501572;31;19991;-84
2022/05/24 00:15:45;;;;;;;;;;;;;;;20.58;60.32;98989.63;4474190;31;20009;-84
2022/05/24 00:18:12;;;;;;;;;;;;;;;20.50;60.33;98987.66;4482609;31;20274;-84
2022/05/24 00:20:37;;;;;;;;;;;;;;;20.41;60.32;98975.22;4517426;31;20059;-84
2022/05/24 00:23:02;;;;;;;;;;;;;;;20.38;60.32;98991.31;4517457;31;19997;-84
2022/05/24 00:25:27;;;;;;;;;;;;;;;20.28;60.31;98993.03;4517089;31;20365;-84
2022/05/24 00:27:53;;;;;;;;;;;;;;;20.36;60.31;98975.59;4502800;31;20344;-84
2022/05/24 00:30:18;;;;;;;;;;;;;;;20.21;60.30;98974.22;4517370;31;20010;-84
2022/05/24 00:32:44;;;;;;;;;;;;;;;20.22;60.32;98974.09;4517311;31;19964;-84
2022/05/24 00:35:09;;;;;;;;;;;;;;;20.31;60.32;98969.00;4502852;31;19986;-84
2022/05/24 00:37:36;;;;;;;;;;;;;;;20.14;60.30;98965.16;4517274;31;19972;-84
2022/05/24 00:40:02;;;;;;;;;;;;;;;20.24;60.31;98971.31;4517268;31;19995;-84
2022/05/24 00:42:27;;;;;;;;;;;;;;;20.11;60.30;98976.81;4502613;31;20285;-84
2022/05/24 00:44:59;;;;;;;;;;;;;;;20.16;60.31;98974.63;4502667;31;20003;-84
2022/05/24 00:47:30;;;;;;;;;;;;;;;20.13;60.30;98977.53;4502773;31;19983;-84
2022/05/24 00:49:56;;;;;;;;;;;;;;;20.03;60.30;98984.53;4502705;31;19991;-84
2022/05/24 00:52:28;;;;;;;;;;;;;;;19.98;60.29;98975.31;4502818;31;20043;-84
2022/05/24 00:54:54;;;;;;;;;;;;;;;20.07;60.29;98979.81;4503061;31;19972;-84
2022/05/24 00:57:19;;;;;;;;;;;;;;;19.91;60.30;98981.09;4489712;31;20023;-84
2022/05/24 00:59:46;;;;;;;;;;;;;;;20.04;60.30;98982.72;4517362;31;20011;-84
2022/05/24 01:02:12;;;;;;;;;;;;;;;20.00;60.30;98979.50;4502502;31;19987;-84
2022/05/24 01:04:37;;;;;;;;;;;;;;;19.91;60.31;98978.47;4502620;31;20031;-84
2022/05/24 01:07:03;;;;;;;;;;;;;;;19.85;60.29;98983.41;4517280;31;19990;-84
2022/05/24 01:09:29;;;;;;;;;;;;;;;19.90;60.29;98978.59;4517059;31;19971;-84
2022/05/24 01:11:58;;;;;;;;;;;;;;;19.80;60.29;98982.94;4489197;31;19999;-85
2022/05/24 01:14:23;;;;;;;;;;;;;;;19.88;60.29;98978.72;4516928;31;20082;-84
2022/05/24 01:16:48;;;;;;;;;;;;;;;19.87;60.29;98979.69;4516539;31;20007;-84
2022/05/24 01:19:16;;;;;;;;;;;;;;;20.00;60.30;98979.50;4516908;31;20015;-84
2022/05/24 01:21:41;;;;;;;;;;;;;;;19.86;60.29;98987.72;4502500;31;19991;-84
2022/05/24 01:24:08;;;;;;;;;;;;;;;19.89;60.29;98993.59;4516563;31;20031;-84
2022/05/24 01:26:45;;;;;;;;;;;;;;;19.73;60.28;99000.25;4502456;31;19972;-84
2022/05/24 01:29:10;;;;;;;;;;;;;;;19.87;60.29;98998.19;4502540;31;20411;-84
2022/05/24 01:37:03;;;;;;;;;;;;;;;19.74;60.28;99025.69;4504353;31;19983;-83
2022/05/24 01:39:29;;;;;;;;;;;;;;;19.87;60.29;99051.00;4516695;31;20379;-84
2022/05/24 01:41:54;;;;;;;;;;;;;;;19.85;60.30;99068.75;4502090;31;20035;-84
2022/05/24 01:44:34;;;;;;;;;;;;;;;19.80;60.29;99078.84;4501584;31;20044;-86
2022/05/24 01:46:59;;;;;;;;;;;;;;;19.80;60.29;99065.66;4501885;31;19972;-85
2022/05/24 01:49:26;;;;;;;;;;;;;;;19.68;60.27;99060.53;4488276;31;20496;-86
2022/05/24 01:51:55;;;;;;;;;;;;;;;19.80;60.29;99056.87;4501988;31;19999;-84
2022/05/24 01:54:20;;;;;;;;;;;;;;;19.86;60.29;99035.25;4501863;31;19983;-84
2022/05/24 01:56:50;;;;;;;;;;;;;;;19.80;60.28;98981.13;4501596;31;20310;-84
2022/05/24 01:59:17;;;;;;;;;;;;;;;19.54;60.28;98956.03;4501701;31;19992;-84
2022/05/24 02:01:50;;;;;;;;;;;;;;;19.33;60.27;98979.69;4501590;31;19999;-84
2022/05/24 02:04:16;;;;;;;;;;;;;;;19.26;60.26;98981.97;4501786;31;20051;-84
2022/05/24 02:06:41;;;;;;;;;;;;;;;19.27;60.26;98991.56;4501613;31;19983;-83
2022/05/24 02:09:06;;;;;;;;;;;;;;;19.26;60.26;99012.81;4516117;31;19993;-84
2022/05/24 02:11:32;;;;;;;;;;;;;;;19.15;60.26;99024.19;4501643;31;19984;-83
2022/05/24 02:14:11;;;;;;;;;;;;;;;19.22;60.26;99038.59;4501462;31;20312;-83
2022/05/24 02:16:36;;;;;;;;;;;;;;;19.23;60.26;99035.00;4501518;31;19972;-83
2022/05/24 02:19:02;;;;;;;;;;;;;;;19.18;60.26;99050.34;4501450;31;20011;-83
2022/05/24 02:21:27;;;;;;;;;;;;;;;19.31;60.26;99050.22;4516026;31;19999;-83
2022/05/24 02:23:52;;;;;;;;;;;;;;;19.27;60.26;99060.19;4501435;31;20027;-83
2022/05/24 02:26:18;;;;;;;;;;;;;;;19.16;60.25;99060.16;4501441;31;20328;-84
2022/05/24 02:28:44;;;;;;;;;;;;;;;19.15;60.26;99071.69;4516118;31;19975;-83
2022/05/24 02:31:11;;;;;;;;;;;;;;;18.98;60.24;99069.53;4503773;31;20021;-84
2022/05/24 02:33:36;;;;;;;;;;;;;;;18.99;60.24;99085.25;4518133;31;20002;-85
2022/05/24 02:36:02;;;;;;;;;;;;;;;19.02;60.25;99084.16;4518108;31;20297;-85
2022/05/24 02:38:27;;;;;;;;;;;;;;;18.87;60.24;99091.44;4518231;31;20021;-85
2022/05/24 02:43:36;;;;;;;;;;;;;;;18.41;60.21;99102.78;4518109;31;20358;-84
2022/05/24 02:46:02;;;;;;;;;;;;;;;18.37;60.20;99103.13;4518091;31;19964;-84
2022/05/24 02:48:28;;;;;;;;;;;;;;;18.35;60.20;99097.97;4518136;31;20023;-83
2022/05/24 02:50:53;;;;;;;;;;;;;;;18.07;60.19;99104.44;4518216;31;20003;-84
2022/05/24 02:53:18;;;;;;;;;;;;;;;18.31;60.21;99111.50;4518172;31;20058;-83
2022/05/24 02:55:43;;;;;;;;;;;;;;;18.24;60.21;99110.28;4518025;31;19960;-84
2022/05/24 02:58:09;;;;;;;;;;;;;;;17.98;60.18;99104.25;4503479;31;20035;-84
2022/05/24 03:00:34;;;;;;;;;;;;;;;18.01;60.19;99102.25;4517578;31;20567;-84
2022/05/24 03:02:59;;;;;;;;;;;;;;;17.63;60.16;99106.78;4503464;31;19999;-84
2022/05/24 03:05:24;;;;;;;;;;;;;;;17.69;60.17;99109.00;4490093;31;19994;-84
2022/05/24 03:10:41;;;;;;;;;;;;;;;17.49;60.16;99098.06;4476184;31;19980;-84
2022/05/24 03:15:50;;;;;;;;;;;;;;;17.36;60.15;99084.09;4505465;31;20334;-84
2022/05/24 03:18:17;;;;;;;;;;;;;;;17.27;60.14;99073.34;4503246;31;20008;-84
2022/05/24 03:20:43;;;;;;;;;;;;;;;17.27;60.14;99070.72;4517912;31;19984;-84
2022/05/24 03:23:08;;;;;;;;;;;;;;;17.15;60.15;99065.41;4517902;31;19991;-84
2022/05/24 03:25:33;;;;;;;;;;;;;;;17.32;60.15;99073.91;4517806;31;20010;-84
2022/05/24 03:28:03;;;;;;;;;;;;;;;17.21;60.14;99085.16;4517716;31;20033;-84
2022/05/24 03:30:28;;;;;;;;;;;;;;;17.02;60.14;99090.00;4503473;31;20010;-84
2022/05/24 03:32:53;;;;;;;;;;;;;;;17.13;60.14;99108.53;4502977;31;19976;-84
2022/05/24 03:35:19;;;;;;;;;;;;;;;17.15;60.15;99130.28;4517752;31;20394;-84
2022/05/24 03:37:44;;;;;;;;;;;;;;;17.17;60.14;99146.81;4503083;31;19987;-84
2022/05/24 03:40:09;;;;;;;;;;;;;;;17.31;60.15;99143.25;4517528;31;19991;-84
2022/05/24 03:42:35;;;;;;;;;;;;;;;17.31;60.15;99151.97;4502958;31;19989;-84
2022/05/24 03:45:00;;;;;;;;;;;;;;;17.18;60.14;99144.06;4502992;31;20613;-84
2022/05/24 03:47:26;;;;;;;;;;;;;;;17.13;60.13;99130.41;4517403;31;20248;-84
2022/05/24 03:49:51;;;;;;;;;;;;;;;17.06;60.13;99133.56;4503030;31;20000;-84
2022/05/24 03:52:16;;;;;;;;;;;;;;;17.15;60.14;99118.00;4502230;31;21809;-83
2022/05/24 03:54:41;;;;;;;;;;;;;;;16.99;60.12;99117.34;4502740;31;19982;-84
2022/05/24 03:59:50;;;;;;;;;;;;;;;16.95;60.13;99128.19;4505346;31;19997;-84
2022/05/24 04:02:15;;;;;;;;;;;;;;;17.09;60.14;99126.31;4517248;31;19976;-83
2022/05/24 04:04:41;;;;;;;;;;;;;;;16.98;60.13;99120.94;4515394;31;20270;-84
2022/05/24 04:07:06;;;;;;;;;;;;;;;16.91;60.12;99122.31;4483963;31;20013;-83
2022/05/24 04:09:32;;;;;;;;;;;;;;;16.90;60.12;99128.50;4501126;31;20004;-82
2022/05/24 04:11:57;;;;;;;;;;;;;;;16.77;60.12;99136.34;4501190;31;19980;-83
2022/05/24 04:14:22;;;;;;;;;;;;;;;16.87;60.12;99142.69;4501132;31;19995;-83
2022/05/24 04:16:47;;;;;;;;;;;;;;;16.93;60.13;99135.34;4500791;31;23116;-85
2022/05/24 04:19:13;;;;;;;;;;;;;;;16.90;60.12;99136.38;4473739;31;19987;-83
2022/05/24 04:21:38;;;;;;;;;;;;;;;16.78;60.12;99139.81;4501042;31;20580;-84
2022/05/24 04:24:03;;;;;;;;;;;;;;;16.69;60.10;99138.66;4486599;31;20239;-85
2022/05/24 04:26:28;;;;;;;;;;;;;;;16.70;60.12;99132.47;4501107;31;19992;-84
2022/05/24 04:28:54;;;;;;;;;;;;;;;16.77;60.12;99149.50;4500896;31;20017;-83
2022/05/24 04:31:19;;;;;;;;;;;;;;;16.63;60.11;99149.56;4486518;31;20119;-83
2022/05/24 04:33:44;;;;;;;;;;;;;;;16.83;60.11;99148.28;4501501;31;19969;-86
2022/05/24 04:36:09;;;;;;;;;;;;;;;16.93;60.13;99151.09;4486755;31;20067;-84
2022/05/24 04:38:35;;;;;;;;;;;;;;;16.73;60.11;99150.66;4487656;31;20373;-86
2022/05/24 04:43:44;;;;;;;;;;;;;;;16.78;60.12;99156.44;4489580;31;20029;-86
2022/05/24 04:46:09;;;;;;;;;;;;;;;16.78;60.12;99158.22;4486533;31;20027;-85
2022/05/24 04:48:34;;;;;;;;;;;;;;;16.80;60.11;99159.84;4487056;31;20008;-86
2022/05/24 04:51:00;;;;;;;;;;;;;;;16.73;60.11;99165.59;4501325;31;20313;-84
2022/05/24 04:53:26;;;;;;;;;;;;;;;16.73;60.11;99166.41;4485813;31;19993;-86
2022/05/24 04:55:51;;;;;;;;;;;;;;;16.66;60.11;99164.28;4486673;31;20336;-84
2022/05/24 04:58:17;;;;;;;;;;;;;;;16.54;60.10;99158.88;4486625;31;20037;-86
2022/05/24 05:00:42;;;;;;;;;;;;;;;16.63;60.11;99154.81;4486256;31;20269;-85
2022/05/24 05:03:11;;;;;;;;;;;;;;;16.58;60.10;99154.28;4486839;31;20237;-86
2022/05/24 05:05:37;;;;;;;;;;;;;;;16.55;60.10;99149.22;4486858;31;19999;-85
2022/05/24 05:08:02;;;;;;;;;;;;;;;16.52;60.10;99137.13;4500641;31;19988;-83
2022/05/24 05:10:27;;;;;;;;;;;;;;;16.41;60.09;99150.13;4487792;31;20016;-84
2022/05/24 05:12:52;;;;;;;;;;;;;;;16.46;60.09;99147.19;4484876;32;20007;-83
2022/05/24 05:15:17;;;;;;;;;;;;;;;16.36;60.09;99156.63;4484852;32;20019;-84
2022/05/24 05:17:43;;;;;;;;;;;;;;;16.33;60.09;99154.22;4484712;32;19972;-84
2022/05/24 05:20:08;;;;;;;;;;;;;;;16.26;60.09;99156.38;4470835;32;19988;-84
2022/05/24 05:22:33;;;;;;;;;;;;;;;16.23;60.09;99151.31;4470789;32;19973;-84
2022/05/24 05:24:59;;;;;;;;;;;;;;;16.28;60.09;99146.59;4485079;32;20007;-85
2022/05/24 05:27:24;;;;;;;;;;;;;;;16.14;60.08;99152.75;4485078;32;19976;-84
2022/05/24 05:32:33;;;;;;;;;;;;;;;16.24;60.08;99159.09;4484976;32;20073;-85
2022/05/24 05:34:58;;;;;;;;;;;;;;;16.21;60.08;99159.28;4470704;32;19992;-84
2022/05/24 05:37:25;;;;;;;;;;;;;;;16.27;60.09;99158.06;4470593;32;20338;-84
2022/05/24 05:39:50;;;;;;;;;;;;;;;16.35;60.08;99162.84;4470658;32;19969;-85
2022/05/24 05:42:16;;;;;;;;;;;;;;;16.39;60.08;99162.53;4470561;32;19991;-84
2022/05/24 05:44:41;;;;;;;;;;;;;;;16.44;60.09;99165.69;4484446;32;21706;-84
2022/05/24 05:47:07;;;;;;;;;;;;;;;16.46;60.09;99160.34;4484820;31;19981;-84
2022/05/24 05:49:32;;;;;;;;;;;;;;;16.54;60.09;99165.91;4484621;32;20343;-84
2022/05/24 05:51:57;;;;;;;;;;;;;;;16.48;60.09;99161.06;4470116;32;19976;-84
2022/05/24 05:54:23;;;;;;;;;;;;;;;16.51;60.10;99164.34;4457334;32;19989;-84
2022/05/24 05:56:49;;;;;;;;;;;;;;;16.42;60.09;99161.47;4470574;32;20046;-85
2022/05/24 05:59:14;;;;;;;;;;;;;;;16.55;60.10;99159.72;4470262;32;20048;-84
2022/05/24 06:01:39;;;;;;;;;;;;;;;16.60;60.10;99159.44;4470377;32;20067;-85
2022/05/24 06:04:04;;;;;;;;;;;;;;;16.65;60.11;99163.44;4484383;32;21132;-85
2022/05/24 06:06:31;;;;;;;;;;;;;;;16.54;60.09;99158.03;4472249;31;20045;-85
2022/05/24 06:08:56;;;;;;;;;;;;;;;16.51;60.09;99160.88;4472253;32;20370;-85
2022/05/24 06:11:23;;;;;;;;;;;;;;;16.56;60.09;99164.03;4486664;32;19968;-85
2022/05/24 06:13:48;;;;;;;;;;;;;;;16.54;60.10;99164.13;4472247;32;19992;-85
2022/05/24 06:16:14;;;;;;;;;;;;;;;16.44;60.09;99164.84;4459212;32;20010;-85
2022/05/24 06:18:39;;;;;;;;;;;;;;;16.57;60.10;99161.31;4472385;32;20011;-85
2022/05/24 06:21:04;;;;;;;;;;;;;;;16.60;60.10;99157.66;4472324;32;19976;-84
2022/05/24 06:23:30;;;;;;;;;;;;;;;16.50;60.09;99156.56;4459375;32;20281;-85
2022/05/24 06:25:55;;;;;;;;;;;;;;;16.29;60.08;99158.78;4459171;32;19992;-85
2022/05/24 06:28:20;;;;;;;;;;;;;;;16.41;60.09;99157.16;4459579;32;19984;-86
2022/05/24 06:30:45;;;;;;;;;;;;;;;16.53;60.09;99148.47;4459735;32;20223;-85
2022/05/24 06:33:11;;;;;;;;;;;;;;;16.47;60.09;99144.47;4472784;32;19977;-85
2022/05/24 06:35:36;;;;;;;;;;;;;;;16.39;60.08;99157.28;4472893;32;20014;-85
2022/05/24 06:38:02;;;;;;;;;;;;;;;16.38;60.08;99160.84;4472317;32;19992;-85
2022/05/24 06:40:27;;;;;;;;;;;;;;;16.28;60.08;99160.56;4486610;32;20246;-85
2022/05/24 06:42:52;;;;;;;;;;;;;;;16.26;60.08;99169.50;4472009;32;19996;-84
2022/05/24 06:45:18;;;;;;;;;;;;;;;16.42;60.09;99164.94;4486601;32;19972;-85
2022/05/24 06:47:43;;;;;;;;;;;;;;;16.40;60.10;99172.09;4486556;31;20009;-85
2022/05/24 06:50:08;;;;;;;;;;;;;;;16.36;60.08;99167.12;4472223;32;20014;-85
2022/05/24 06:52:34;;;;;;;;;;;;;;;16.29;60.08;99179.81;4472226;32;20275;-85
2022/05/24 06:54:59;;;;;;;;;;;;;;;16.50;60.10;99174.94;4486326;32;20043;-86
2022/05/24 06:57:24;;;;;;;;;;;;;;;16.56;60.10;99185.03;4458976;32;19987;-85
2022/05/24 07:02:34;;;;;;;;;;;;;;;16.59;60.10;99190.12;4486620;32;20135;-85
2022/05/24 07:05:01;;;;;;;;;;;;;;;16.68;60.10;99188.69;4486630;32;19996;-85
2022/05/24 07:07:26;;;;;;;;;;;;;;;16.75;60.10;99187.34;4472188;32;19987;-85
2022/05/24 07:09:52;;;;;;;;;;;;;;;16.90;60.11;99188.97;4486593;32;19968;-85
2022/05/24 07:12:18;;;;;;;;;;;;;;;16.85;60.12;99188.44;4459064;32;20026;-85
2022/05/24 07:14:43;;;;;;;;;;;;;;;16.84;60.11;99179.72;4471960;32;20000;-85
2022/05/24 07:17:08;;;;;;;;;;;;;;;17.01;60.13;99181.19;4472145;32;20337;-86
2022/05/24 07:19:33;;;;;;;;;;;;;;;17.15;60.12;99177.63;4471689;32;21498;-85
2022/05/24 07:21:59;;;;;;;;;;;;;;;17.21;60.13;99171.09;4486569;32;19980;-85
2022/05/24 07:24:24;;;;;;;;;;;;;;;17.31;60.12;99175.66;4486372;32;19988;-85
2022/05/24 07:26:49;;;;;;;;;;;;;;;17.40;60.14;99167.12;4471558;32;20016;-85
2022/05/24 07:29:14;;;;;;;;;;;;;;;17.58;60.15;99169.41;4486195;32;20000;-85
2022/05/24 07:31:40;;;;;;;;;;;;;;;17.72;60.16;99170.16;4486267;31;20492;-85
2022/05/24 07:34:05;;;;;;;;;;;;;;;17.90;60.17;99170.63;4471622;32;19989;-85
2022/05/24 07:36:30;;;;;;;;;;;;;;;18.01;60.17;99173.38;4471592;32;19984;-85
2022/05/24 07:38:55;;;;;;;;;;;;;;;18.18;60.18;99168.66;4471586;32;20033;-85
2022/05/24 07:46:49;;;;;;;;;;;;;;;18.62;60.21;99168.03;4473958;32;19998;-86
2022/05/24 07:49:14;;;;;;;;;;;;;;;18.67;60.20;99166.75;4458332;32;19984;-85
2022/05/24 07:51:39;;;;;;;;;;;;;;;18.62;60.20;99168.03;4471672;32;20004;-85
2022/05/24 07:54:04;;;;;;;;;;;;;;;18.74;60.21;99171.59;4486110;32;19999;-85
2022/05/24 07:56:30;;;;;;;;;;;;;;;18.89;60.22;99170.44;4471832;32;19988;-85
2022/05/24 07:58:55;;;;;;;;;;;;;;;18.99;60.22;99171.44;4471359;32;20707;-85
2022/05/24 08:01:23;;;;;;;;;;;;;;;18.95;60.22;99168.19;4486061;32;20016;-85
2022/05/24 08:03:48;;;;;;;;;;;;;;;19.10;60.23;99176.72;4472088;32;19996;-85
2022/05/24 08:06:15;;;;;;;;;;;;;;;19.22;60.23;99177.59;4471565;32;20352;-85
2022/05/24 08:08:40;;;;;;;;;;;;;;;19.26;60.24;99187.78;4486020;32;20044;-85
2022/05/24 08:11:05;;;;;;;;;;;;;;;19.44;60.25;99177.63;4486077;32;19969;-85
2022/05/24 08:13:30;;;;;;;;;;;;;;;19.40;60.25;99181.47;4471578;32;19992;-85
2022/05/24 08:15:56;;;;;;;;;;;;;;;19.53;60.24;99174.28;4471674;32;20033;-85
2022/05/24 08:18:21;;;;;;;;;;;;;;;19.64;60.26;99173.47;4472108;32;19988;-85
2022/05/24 08:20:47;;;;;;;;;;;;;;;19.63;60.26;99172.59;4472076;32;20035;-86
2022/05/24 08:23:12;;;;;;;;;;;;;;;19.80;60.26;99163.34;4472491;32;20306;-85
2022/05/24 08:25:37;;;;;;;;;;;;;;;19.88;60.27;99154.84;4474446;32;20297;-85
2022/05/24 08:28:07;;;;;;;;;;;;;;;20.05;60.28;99158.75;4471615;32;20000;-85
2022/05/24 08:30:34;;;;;;;;;;;;;;;20.09;60.28;99166.31;4486125;31;20041;-86
2022/05/24 08:32:59;;;;;;;;;;;;;;;20.11;60.28;99167.06;4486043;32;19984;-85
2022/05/24 08:35:24;;;;;;;;;;;;;;;20.22;60.28;99168.81;4471486;32;19996;-86
2022/05/24 08:37:50;;;;;;;;;;;;;;;20.37;60.29;99169.38;4458484;32;20304;-85
2022/05/24 08:40:16;;;;;;;;;;;;;;;20.32;60.30;99166.25;4485699;31;20244;-85
2022/05/24 08:42:47;;;;;;;;;;;;;;;20.42;60.30;99154.03;4471274;32;20525;-85
2022/05/24 08:51:02;;;;;;;;;;;;;;;20.92;60.32;99160.41;4427254;32;20049;-85
2022/05/24 08:53:35;;;;;;;;;;;;;;;20.99;60.32;99153.59;4461602;31;19984;-85
2022/05/24 08:56:02;;;;;;;;;;;;;;;21.34;60.34;99158.59;4471211;32;19995;-85
2022/05/24 08:58:32;;;;;;;;;;;;;;;21.37;60.34;99157.50;4458726;32;19984;-85
2022/05/24 09:00:57;;;;;;;;;;;;;;;21.59;60.36;99156.47;4471325;32;19996;-85
2022/05/24 09:03:25;;;;;;;;;;;;;;;21.82;60.37;99154.47;4485687;32;20331;-85
2022/05/24 09:05:55;;;;;;;;;;;;;;;21.86;60.38;99151.41;4485492;31;20044;-85
2022/05/24 09:08:25;;;;;;;;;;;;;;;21.92;60.37;99157.97;4471650;32;20340;-85
2022/05/24 09:11:11;;;;;;;;;;;;;;;22.04;60.39;99156.94;4471274;32;20044;-85
2022/05/24 09:13:55;;;;;;;;;;;;;;;22.15;60.39;99164.75;4457989;32;20067;-86
2022/05/24 09:16:20;;;;;;;;;;;;;;;22.13;60.39;99158.75;4485534;31;19983;-85
2022/05/24 09:19:08;;;;;;;;;;;;;;;22.31;60.39;99165.06;4471043;32;20237;-85
2022/05/24 09:21:33;;;;;;;;;;;;;;;22.41;60.39;99170.37;4458075;32;20057;-86
2022/05/24 09:24:02;;;;;;;;;;;;;;;22.58;60.41;99166.22;4471044;32;19988;-85
2022/05/24 09:26:29;;;;;;;;;;;;;;;22.75;60.42;99165.53;4485251;32;20321;-86
2022/05/24 09:28:55;;;;;;;;;;;;;;;23.02;60.43;99148.88;4458137;32;19984;-85
2022/05/24 09:31:20;;;;;;;;;;;;;;;23.23;60.44;99146.06;4485359;32;20028;-84
2022/05/24 09:33:45;;;;;;;;;;;;;;;23.27;60.45;99158.88;4485219;32;20104;-85
2022/05/24 09:36:11;;;;;;;;;;;;;;;23.19;60.44;99158.78;4470857;32;20235;-86
2022/05/24 09:38:37;;;;;;;;;;;;;;;23.33;60.44;99159.28;4457433;32;20002;-85
2022/05/24 09:41:15;;;;;;;;;;;;;;;23.46;60.45;99154.50;4485066;31;20036;-85
2022/05/24 09:43:40;;;;;;;;;;;;;;;23.55;60.46;99154.47;4470508;32;20049;-85
2022/05/24 09:46:09;;;;;;;;;;;;;;;23.60;60.46;99158.53;4470557;32;19969;-85
2022/05/24 09:48:35;;;;;;;;;;;;;;;23.66;60.47;99164.13;4485079;32;19977;-86
2022/05/24 09:51:00;;;;;;;;;;;;;;;23.55;60.46;99162.44;4457532;32;19984;-86
2022/05/24 09:53:27;;;;;;;;;;;;;;;23.73;60.46;99159.88;4470692;32;19989;-86
2022/05/24 09:55:55;;;;;;;;;;;;;;;23.63;60.47;99156.41;4484740;32;20276;-85
2022/05/24 09:58:23;;;;;;;;;;;;;;;23.80;60.47;99154.81;4484975;32;19984;-86
2022/05/24 10:00:56;;;;;;;;;;;;;;;23.76;60.48;99156.09;4470481;32;20314;-85
2022/05/24 10:03:32;;;;;;;;;;;;;;;23.69;60.47;99169.13;4470594;32;20011;-86
2022/05/24 10:05:57;;;;;;;;;;;;;;;23.71;60.46;99166.31;4484760;32;20318;-85
2022/05/24 10:08:22;;;;;;;;;;;;;;;23.83;60.47;99168.63;4470424;32;19984;-85
2022/05/24 10:10:48;;;;;;;;;;;;;;;23.98;60.48;99161.00;4470437;32;20036;-87
2022/05/24 10:13:25;;;;;;;;;;;;;;;23.99;60.49;99165.34;4470444;32;20245;-86
2022/05/24 10:15:55;;;;;;;;;;;;;;;24.14;60.50;99158.53;4473201;32;19972;-86
2022/05/24 10:18:33;;;;;;;;;;;;;;;24.39;60.51;99157.00;4471589;32;19968;-85
2022/05/24 10:21:19;;;;;;;;;;;;;;;24.60;60.52;99158.50;4484636;32;19993;-86
2022/05/24 10:23:44;;;;;;;;;;;;;;;24.91;60.54;99156.28;4484605;32;20003;-86
2022/05/24 10:26:15;;;;;;;;;;;;;;;25.09;60.55;99146.47;4484490;32;19977;-85
2022/05/24 10:28:46;;;;;;;;;;;;;;;25.31;60.56;99148.59;4484489;32;19976;-85
2022/05/24 10:31:11;;;;;;;;;;;;;;;25.55;60.57;99137.25;4484387;32;19980;-85
2022/05/24 10:39:26;;;;;;;;;;;;;;;26.28;60.60;99132.19;4472144;32;19995;-85
2022/05/24 10:41:51;;;;;;;;;;;;;;;26.57;60.62;99123.72;4456819;32;19992;-86
2022/05/24 10:44:22;;;;;;;;;;;;;;;26.71;60.63;99127.56;4484167;32;20027;-85
2022/05/24 10:47:02;;;;;;;;;;;;;;;26.75;60.63;99134.25;4456713;32;19972;-85
2022/05/24 10:49:36;;;;;;;;;;;;;;;26.67;60.62;99126.22;4484261;32;19976;-86
2022/05/24 10:52:12;;;;;;;;;;;;;;;26.53;60.62;99124.22;4471892;32;20276;-85
2022/05/24 10:54:44;;;;;;;;;;;;;;;26.30;60.60;99132.00;4472201;32;19999;-85
2022/05/24 10:57:10;;;;;;;;;;;;;;;26.56;60.62;99135.41;4486319;32;20028;-86
2022/05/24 10:59:43;;;;;;;;;;;;;;;26.59;60.62;99134.25;4471937;32;19992;-85
2022/05/24 11:02:20;;;;;;;;;;;;;;;26.57;60.63;99126.41;4472080;32;19992;-85
2022/05/24 11:04:57;;;;;;;;;;;;;;;26.64;60.63;99120.38;4486557;32;20393;-85
2022/05/24 11:07:22;;;;;;;;;;;;;;;26.64;60.63;99118.56;4472129;32;20321;-85
2022/05/24 11:09:54;;;;;;;;;;;;;;;26.60;60.62;99111.88;4471835;32;20805;-86
2022/05/24 11:12:22;;;;;;;;;;;;;;;26.54;60.62;99109.87;4471953;32;19989;-85
2022/05/24 11:14:49;;;;;;;;;;;;;;;26.75;60.63;99099.53;4459069;31;20003;-85
2022/05/24 11:17:16;;;;;;;;;;;;;;;26.88;60.64;99099.84;4459031;32;20010;-85
2022/05/24 11:19:46;;;;;;;;;;;;;;;26.61;60.62;99111.72;4486273;32;20056;-85
2022/05/24 11:22:11;;;;;;;;;;;;;;;26.57;60.62;99114.88;4471997;32;20014;-85
2022/05/24 11:24:40;;;;;;;;;;;;;;;26.62;60.62;99116.06;4486261;32;20357;-85
2022/05/24 11:27:05;;;;;;;;;;;;;;;26.61;60.62;99111.72;4471895;32;20044;-86
2022/05/24 11:29:44;;;;;;;;;;;;;;;26.67;60.63;99115.53;4471837;31;19980;-86
2022/05/24 11:32:10;;;;;;;;;;;;;;;26.67;60.63;99104.88;4458707;32;19984;-85
2022/05/24 11:34:37;;;;;;;;;;;;;;;26.42;60.62;99109.37;4471889;32;19992;-86
2022/05/24 11:37:09;;;;;;;;;;;;;;;26.48;60.61;99105.19;4471678;32;20039;-85
2022/05/24 11:39:38;;;;;;;;;;;;;;;26.42;60.62;99106.69;4472127;32;19965;-85
2022/05/24 11:42:22;;;;;;;;;;;;;;;26.47;60.61;99101.69;4458562;31;20289;-85
2022/05/24 11:44:48;;;;;;;;;;;;;;;26.64;60.63;99099.03;4486355;31;20002;-85
2022/05/24 11:47:32;;;;;;;;;;;;;;;26.77;60.63;99099.38;4471823;32;19973;-86
2022/05/24 11:49:58;;;;;;;;;;;;;;;26.80;60.63;99107.03;4486025;32;19981;-85
2022/05/24 11:52:44;;;;;;;;;;;;;;;26.97;60.65;99102.50;4471534;32;20359;-85
2022/05/24 11:55:09;;;;;;;;;;;;;;;26.95;60.64;99101.84;4471777;32;20372;-86
2022/05/24 11:57:39;;;;;;;;;;;;;;;26.95;60.64;99101.84;4485952;31;19976;-85
2022/05/24 12:00:06;;;;;;;;;;;;;;;26.93;60.64;99107.34;4471779;32;20011;-86
2022/05/24 12:07:54;;;;;;;;;;;;;;;26.91;60.64;99102.16;4486033;32;20345;-86
2022/05/24 12:08:29;;;;;;;;;;;;;;;26.89;60.65;99081.97;4478722;32;20007;-86
2022/05/24 12:11:04;;;;;;;;;;;;;;;26.92;60.64;99081.63;4471917;32;19968;-86
2022/05/24 12:13:30;;;;;;;;;;;;;;;26.70;60.63;99080.50;4485922;32;19996;-86
2022/05/24 12:15:57;;;;;;;;;;;;;;;26.46;60.62;99084.00;4471554;32;20052;-85
2022/05/24 12:18:25;;;;;;;;;;;;;;;26.71;60.64;99087.50;4471678;32;20321;-86
2022/05/24 12:20:52;;;;;;;;;;;;;;;26.79;60.64;99084.84;4486011;32;19978;-85
2022/05/24 12:23:19;;;;;;;;;;;;;;;26.95;60.65;99081.28;4485920;32;19996;-85
2022/05/24 12:26:03;;;;;;;;;;;;;;;26.98;60.65;99077.47;4471666;31;20007;-85
2022/05/24 12:28:37;;;;;;;;;;;;;;;26.94;60.64;99079.63;4485813;32;19968;-86
2022/05/24 12:31:17;;;;;;;;;;;;;;;27.01;60.65;99079.84;4485768;32;20040;-86
2022/05/24 12:33:47;;;;;;;;;;;;;;;26.76;60.64;99073.69;4485773;32;19992;-85
2022/05/24 12:36:32;;;;;;;;;;;;;;;26.84;60.63;99070.97;4485649;31;20016;-85
2022/05/24 12:39:04;;;;;;;;;;;;;;;26.98;60.65;99075.66;4474693;32;19973;-85
2022/05/24 12:41:33;;;;;;;;;;;;;;;27.37;60.67;99075.72;4471277;32;19989;-85
2022/05/24 12:44:12;;;;;;;;;;;;;;;27.57;60.68;99078.81;4485650;31;19985;-86
2022/05/24 12:46:37;;;;;;;;;;;;;;;27.69;60.68;99076.63;4471309;32;20092;-85
2022/05/24 12:49:07;;;;;;;;;;;;;;;27.87;60.69;99065.66;4471301;32;20336;-85
2022/05/24 12:51:32;;;;;;;;;;;;;;;28.11;60.70;99062.81;4471312;32;19973;-85
2022/05/24 12:54:07;;;;;;;;;;;;;;;28.09;60.70;99059.50;4485495;32;19993;-86
2022/05/24 12:56:32;;;;;;;;;;;;;;;28.11;60.71;99052.12;4485563;32;20039;-85
2022/05/24 12:58:58;;;;;;;;;;;;;;;28.24;60.71;99049.69;4485096;32;19972;-85
2022/05/24 13:01:32;;;;;;;;;;;;;;;28.34;60.71;99046.78;4470719;32;20062;-85
2022/05/24 13:03:57;;;;;;;;;;;;;;;28.49;60.72;99054.88;4471226;32;20451;-85
2022/05/24 13:06:41;;;;;;;;;;;;;;;28.43;60.72;99051.09;4485496;32;19981;-86
2022/05/24 13:09:12;;;;;;;;;;;;;;;28.48;60.73;99047.84;4471195;32;19987;-86
2022/05/24 13:11:38;;;;;;;;;;;;;;;28.55;60.73;99051.47;4485540;32;20037;-85
2022/05/24 13:14:04;;;;;;;;;;;;;;;28.60;60.73;99049.06;4470572;32;19985;-85
2022/05/24 13:16:29;;;;;;;;;;;;;;;28.70;60.73;99047.81;4458068;32;19984;-85
2022/05/24 13:18:55;;;;;;;;;;;;;;;28.82;60.74;99050.03;4485556;32;19996;-86
2022/05/24 13:21:23;;;;;;;;;;;;;;;28.89;60.74;99035.78;4458087;32;19991;-86
2022/05/24 13:23:49;;;;;;;;;;;;;;;28.67;60.73;99037.47;4485589;32;19993;-85
2022/05/24 13:26:15;;;;;;;;;;;;;;;28.21;60.72;99044.69;4470924;32;20388;-86
2022/05/24 13:28:51;;;;;;;;;;;;;;;27.96;60.70;99048.56;4471192;32;20624;-85
2022/05/24 13:34:10;;;;;;;;;;;;;;;27.86;60.70;99048.75;4485200;31;20644;-84
2022/05/24 13:36:46;;;;;;;;;;;;;;;27.59;60.69;99039.38;4470823;32;19984;-85